Time;durP1;ratioP1;P1;durP2;ratioP2;P2;SDS_P1;SDS_P2;PMS_P1;PMS_P2;Temp;Humidity;BMP_temperature;BMP_pressure;BME280_temperature;BME280_humidity;BME280_pressure;Samples;Min_cycle;Max_cycle;Signal;HPM_P1;HPM_P2
2021/01/08 00:01:10;;;;;;;2.85;1.40;;;;;;;1.16;87.91;99540.38;1740647;81;21129;-48
2021/01/08 00:03:40;;;;;;;2.67;1.20;;;;;;;1.15;87.90;99541.30;1741922;81;21002;-49
2021/01/08 00:06:08;;;;;;;2.77;1.17;;;;;;;1.18;87.77;99540.27;1742280;81;21391;-49
2021/01/08 00:08:36;;;;;;;2.30;1.12;;;;;;;1.20;87.68;99555.84;1742335;81;22203;-50
2021/01/08 00:11:03;;;;;;;2.00;1.10;;;;;;;1.20;87.72;99559.27;1740167;81;21046;-49
2021/01/08 00:13:31;;;;;;;3.25;1.57;;;;;;;1.22;87.63;99564.41;1729635;82;21140;-48
2021/01/08 00:15:59;;;;;;;2.17;1.12;;;;;;;1.21;87.47;99564.86;1762098;80;21005;-48
2021/01/08 00:18:27;;;;;;;1.75;1.00;;;;;;;1.22;87.42;99557.89;1743623;81;21880;-49
2021/01/08 00:20:55;;;;;;;3.10;1.60;;;;;;;1.23;87.41;99568.70;1722491;81;21029;-49
2021/01/08 00:23:23;;;;;;;3.87;1.30;;;;;;;1.22;87.34;99574.36;1721512;81;21002;-48
2021/01/08 00:25:52;;;;;;;2.20;1.20;;;;;;;1.22;87.29;99576.97;1721558;81;21131;-48
2021/01/08 00:28:20;;;;;;;2.40;1.30;;;;;;;1.21;87.21;99582.28;1721660;81;21169;-49
2021/01/08 00:30:47;;;;;;;2.62;1.20;;;;;;;1.18;87.11;99571.55;1721630;81;21644;-49
2021/01/08 00:33:15;;;;;;;3.52;1.25;;;;;;;1.17;86.83;99578.55;1721076;81;21148;-49
2021/01/08 00:35:42;;;;;;;2.83;1.35;;;;;;;1.16;86.81;99578.62;1739998;82;21001;-48
2021/01/08 00:38:10;;;;;;;3.05;1.55;;;;;;;1.16;86.83;99579.47;1731744;81;21184;-49
2021/01/08 00:40:38;;;;;;;2.92;1.50;;;;;;;1.16;86.87;99586.44;1731946;81;21633;-49
2021/01/08 00:43:06;;;;;;;2.25;1.07;;;;;;;1.16;86.84;99597.72;1731782;81;21350;-48
2021/01/08 00:45:34;;;;;;;2.27;1.20;;;;;;;1.17;86.69;99586.37;1721438;81;21042;-49
2021/01/08 00:48:03;;;;;;;2.30;1.00;;;;;;;1.20;86.68;99593.16;1721607;81;21184;-49
2021/01/08 00:50:31;;;;;;;2.22;1.27;;;;;;;1.20;86.48;99586.64;1723246;81;21136;-49
2021/01/08 00:52:58;;;;;;;2.02;0.95;;;;;;;1.21;86.66;99593.54;1735773;81;21014;-49
2021/01/08 00:55:26;;;;;;;1.85;1.10;;;;;;;1.24;86.69;99585.55;1721522;81;21415;-49
2021/01/08 00:57:56;;;;;;;2.22;1.07;;;;;;;1.27;86.40;99593.20;1720945;81;21176;-48
2021/01/08 01:00:24;;;;;;;1.35;1.00;;;;;;;1.26;86.20;99604.55;1723259;81;20971;-49
2021/01/08 01:02:51;;;;;;;1.45;0.90;;;;;;;1.27;86.20;99594.98;1721438;81;21128;-49
2021/01/08 01:05:19;;;;;;;1.30;0.80;;;;;;;1.27;85.94;99586.67;1721623;81;22043;-49
2021/01/08 01:07:49;;;;;;;1.47;0.90;;;;;;;1.26;85.82;99591.52;1705305;82;21435;-49
2021/01/08 01:10:17;;;;;;;1.87;0.95;;;;;;;1.26;85.94;99594.59;1721134;81;21167;-49
2021/01/08 01:12:44;;;;;;;1.60;1.00;;;;;;;1.27;85.91;99596.28;1713942;81;20989;-49
2021/01/08 01:15:17;;;;;;;1.12;0.78;;;;;;;1.26;85.50;99588.91;1713489;81;22151;-49
2021/01/08 01:17:43;;;;;;;2.20;1.00;;;;;;;1.24;85.54;99600.36;1713827;81;20967;-49
2021/01/08 01:20:13;;;;;;;1.30;0.93;;;;;;;1.23;85.64;99602.11;1723623;81;21372;-49
2021/01/08 01:22:40;;;;;;;2.08;1.00;;;;;;;1.23;85.61;99608.63;1724234;81;21938;-49
2021/01/08 01:25:09;;;;;;;1.20;0.80;;;;;;;1.23;85.64;99601.29;1713882;81;21023;-49
2021/01/08 01:27:38;;;;;;;1.70;0.85;;;;;;;1.22;85.47;99600.43;1713742;81;21137;-49
2021/01/08 01:30:08;;;;;;;2.27;1.20;;;;;;;1.21;85.26;99610.48;1713795;81;22187;-49
2021/01/08 01:32:36;;;;;;;1.70;1.00;;;;;;;1.18;85.15;99607.59;1713905;81;21360;-49
2021/01/08 01:35:06;;;;;;;1.57;0.85;;;;;;;1.18;85.04;99606.75;1713787;81;20971;-49
2021/01/08 01:37:34;;;;;;;1.47;0.88;;;;;;;1.17;84.98;99612.88;1714502;81;21457;-49
2021/01/08 01:40:03;;;;;;;1.62;1.00;;;;;;;1.15;84.87;99610.83;1713996;81;21013;-49
2021/01/08 01:42:32;;;;;;;2.12;1.20;;;;;;;1.14;84.93;99611.75;1713903;81;21157;-48
2021/01/08 01:44:59;;;;;;;1.65;0.95;;;;;;;1.13;85.00;99606.16;1713726;81;22140;-48
2021/01/08 01:47:27;;;;;;;1.70;1.15;;;;;;;1.12;84.97;99613.16;1726499;81;22108;-49
2021/01/08 01:49:56;;;;;;;1.98;1.10;;;;;;;1.13;85.07;99615.28;1699270;83;21193;-48
2021/01/08 01:52:23;;;;;;;1.57;1.02;;;;;;;1.14;85.32;99621.73;1761073;80;21136;-48
2021/01/08 01:54:51;;;;;;;1.40;1.00;;;;;;;1.15;85.22;99627.77;1729753;80;21670;-48
2021/01/08 01:57:18;;;;;;;2.25;0.95;;;;;;;1.16;85.09;99635.97;1715915;81;23007;-49
2021/01/08 01:59:46;;;;;;;1.67;1.05;;;;;;;1.15;85.03;99632.53;1713102;81;21670;-49
2021/01/08 02:02:24;;;;;;;2.10;1.10;;;;;;;1.16;84.80;99629.45;1735590;81;21026;-49
2021/01/08 02:04:52;;;;;;;1.47;1.00;;;;;;;1.14;84.77;99639.12;1713214;81;21954;-49
2021/01/08 02:07:20;;;;;;;1.80;1.10;;;;;;;1.14;84.76;99623.48;1726210;81;20994;-49
2021/01/08 02:09:48;;;;;;;2.60;0.93;;;;;;;1.12;84.66;99635.76;1716065;81;21464;-49
2021/01/08 02:12:16;;;;;;;2.55;1.30;;;;;;;1.11;84.63;99647.11;1720608;81;21007;-49
2021/01/08 02:14:44;;;;;;;2.40;1.40;;;;;;;1.10;84.66;99642.82;1688803;81;21621;-49
2021/01/08 02:17:14;;;;;;;2.72;1.20;;;;;;;1.10;84.75;99646.28;1713251;82;21137;-49
2021/01/08 02:19:49;;;;;;;2.47;1.27;;;;;;;1.11;84.65;99649.72;1713165;81;21144;-50
2021/01/08 02:22:37;;;;;;;3.30;1.30;;;;;;;1.12;84.65;99654.00;1712686;82;21398;-49
2021/01/08 02:25:20;;;;;;;1.75;1.15;;;;;;;1.13;84.62;99661.75;1719849;81;21172;-49
2021/01/08 02:28:08;;;;;;;2.60;1.30;;;;;;;1.14;84.71;99652.16;1713055;81;21897;-50
2021/01/08 02:30:36;;;;;;;2.42;1.50;;;;;;;1.15;84.70;99649.92;1713246;82;21512;-49
2021/01/08 02:33:04;;;;;;;3.42;1.90;;;;;;;1.12;84.85;99661.38;1713250;81;21105;-49
2021/01/08 02:35:33;;;;;;;2.20;1.40;;;;;;;1.15;85.00;99659.05;1723854;81;22195;-49
2021/01/08 02:38:01;;;;;;;3.00;1.45;;;;;;;1.16;84.83;99665.95;1722952;81;21014;-49
2021/01/08 02:40:29;;;;;;;2.05;1.22;;;;;;;1.17;84.82;99660.66;1693817;81;20967;-49
2021/01/08 02:43:01;;;;;;;1.82;1.10;;;;;;;1.20;84.79;99665.33;1725004;81;20986;-49
2021/01/08 02:45:30;;;;;;;3.15;1.40;;;;;;;1.21;84.55;99661.80;1721980;81;21023;-48
2021/01/08 02:47:58;;;;;;;2.77;1.30;;;;;;;1.20;84.35;99675.28;1713269;81;22166;-48
2021/01/08 02:50:26;;;;;;;1.95;1.05;;;;;;;1.21;84.48;99674.36;1713000;82;22123;-48
2021/01/08 02:52:59;;;;;;;2.10;1.20;;;;;;;1.24;84.45;99676.80;1713038;81;21039;-48
2021/01/08 02:55:31;;;;;;;1.50;1.00;;;;;;;1.24;84.34;99678.58;1713344;81;21984;-48
2021/01/08 02:57:59;;;;;;;2.17;1.20;;;;;;;1.24;84.33;99685.92;1713372;81;22114;-48
2021/01/08 03:00:30;;;;;;;2.37;1.10;;;;;;;1.24;84.48;99683.80;1714512;81;22041;-48
2021/01/08 03:02:59;;;;;;;1.95;1.00;;;;;;;1.24;84.53;99687.70;1700813;81;20999;-49
2021/01/08 03:05:29;;;;;;;1.95;1.07;;;;;;;1.23;84.61;99695.97;1714224;81;21019;-49
2021/01/08 03:07:57;;;;;;;2.02;1.00;;;;;;;1.23;84.72;99694.66;1716696;81;21019;-49
2021/01/08 03:10:25;;;;;;;3.45;1.92;;;;;;;1.22;84.89;99691.69;1705029;83;20983;-49
2021/01/08 03:12:58;;;;;;;3.20;1.42;;;;;;;1.22;85.20;99696.89;1685664;83;21727;-49
2021/01/08 03:15:25;;;;;;;2.37;1.65;;;;;;;1.22;85.48;99703.41;1693125;83;21025;-49
2021/01/08 03:17:53;;;;;;;2.17;1.32;;;;;;;1.20;85.70;99701.35;1708373;83;21021;-49
2021/01/08 03:20:21;;;;;;;2.52;1.40;;;;;;;1.21;85.88;99697.82;1708573;83;22164;-48
2021/01/08 03:22:49;;;;;;;3.02;1.47;;;;;;;1.22;85.94;99702.11;1708564;83;21911;-49
2021/01/08 03:25:17;;;;;;;2.33;1.35;;;;;;;1.21;86.05;99698.30;1708404;83;21255;-49
2021/01/08 03:27:44;;;;;;;2.77;1.92;;;;;;;1.17;85.97;99704.98;1708309;83;21155;-49
2021/01/08 03:30:13;;;;;;;3.27;1.65;;;;;;;1.16;86.08;99715.03;1708573;83;21863;-49
2021/01/08 03:32:41;;;;;;;5.55;2.15;;;;;;;1.15;86.19;99711.19;1708408;83;20997;-48
2021/01/08 03:35:10;;;;;;;2.67;1.67;;;;;;;1.15;86.32;99709.88;1708642;83;21647;-49
2021/01/08 03:37:37;;;;;;;3.02;1.70;;;;;;;1.17;86.41;99718.47;1708847;83;21617;-49
2021/01/08 03:40:09;;;;;;;4.08;2.15;;;;;;;1.16;86.52;99711.12;1708526;83;21159;-49
2021/01/08 03:42:37;;;;;;;3.45;2.22;;;;;;;1.17;86.63;99722.38;1708466;83;21773;-49
2021/01/08 03:45:07;;;;;;;3.05;1.67;;;;;;;1.16;86.74;99721.55;1708469;83;21127;-49
2021/01/08 03:47:35;;;;;;;3.95;2.10;;;;;;;1.16;86.72;99719.39;1708616;83;21159;-49
2021/01/08 03:50:04;;;;;;;4.30;2.15;;;;;;;1.15;86.72;99728.13;1708471;83;21215;-49
2021/01/08 03:52:32;;;;;;;3.47;2.05;;;;;;;1.14;86.82;99731.22;1708438;83;21032;-49
2021/01/08 03:55:00;;;;;;;3.22;2.30;;;;;;;1.14;86.92;99732.52;1708494;83;21159;-49
2021/01/08 03:57:27;;;;;;;4.22;2.30;;;;;;;1.15;86.91;99741.16;1708401;83;21969;-49
2021/01/08 03:59:55;;;;;;;3.85;2.52;;;;;;;1.16;86.98;99734.58;1708691;83;22134;-49
2021/01/08 04:02:22;;;;;;;4.15;2.55;;;;;;;1.17;86.92;99740.63;1707947;83;22054;-49
2021/01/08 04:04:50;;;;;;;4.75;2.37;;;;;;;1.20;86.85;99742.23;1708452;83;21057;-48
2021/01/08 04:07:18;;;;;;;4.35;2.33;;;;;;;1.22;86.88;99745.12;1708521;83;21175;-48
2021/01/08 04:09:45;;;;;;;3.60;2.42;;;;;;;1.25;86.71;99750.17;1708652;83;21984;-48
2021/01/08 04:12:14;;;;;;;4.55;2.72;;;;;;;1.27;86.56;99754.02;1722757;81;21901;-48
2021/01/08 04:14:41;;;;;;;3.15;2.20;;;;;;;1.28;86.42;99755.23;1714871;82;22894;-48
2021/01/08 04:17:10;;;;;;;3.52;2.35;;;;;;;1.30;86.36;99753.38;1727488;81;21051;-49
2021/01/08 04:19:39;;;;;;;3.98;2.55;;;;;;;1.33;86.15;99758.43;1729081;81;21118;-49
2021/01/08 04:22:08;;;;;;;4.55;2.50;;;;;;;1.37;85.96;99767.39;1720540;82;22110;-49
2021/01/08 04:24:36;;;;;;;3.52;2.37;;;;;;;1.38;85.81;99763.86;1713576;81;21125;-49
2021/01/08 04:27:04;;;;;;;4.70;2.95;;;;;;;1.40;85.84;99773.30;1725988;82;21444;-49
2021/01/08 04:29:32;;;;;;;4.67;2.85;;;;;;;1.42;85.84;99770.59;1717294;81;21144;-49
2021/01/08 04:32:00;;;;;;;3.60;2.00;;;;;;;1.44;85.83;99777.42;1713241;81;21101;-49
2021/01/08 04:34:28;;;;;;;3.83;2.58;;;;;;;1.47;85.71;99777.70;1713128;81;21129;-49
2021/01/08 04:36:56;;;;;;;4.45;2.85;;;;;;;1.49;85.75;99784.98;1724946;82;21542;-49
2021/01/08 04:39:24;;;;;;;4.55;2.67;;;;;;;1.50;85.74;99784.06;1719149;82;21896;-49
2021/01/08 04:41:51;;;;;;;4.92;2.95;;;;;;;1.50;85.63;99787.15;1713009;82;21181;-49
2021/01/08 04:44:19;;;;;;;4.10;2.83;;;;;;;1.50;85.74;99789.28;1687389;83;21172;-49
2021/01/08 04:46:47;;;;;;;4.28;2.80;;;;;;;1.52;85.72;99796.56;1713464;81;22105;-49
2021/01/08 04:49:15;;;;;;;4.42;2.90;;;;;;;1.54;85.76;99799.92;1699298;81;21101;-49
2021/01/08 04:51:43;;;;;;;7.12;3.40;;;;;;;1.55;85.77;99797.70;1722051;81;22864;-49
2021/01/08 04:54:10;;;;;;;5.15;3.22;;;;;;;1.57;85.74;99793.24;1654106;83;21684;-49
2021/01/08 04:56:50;;;;;;;5.20;3.15;;;;;;;1.58;85.67;99791.02;1683037;81;21156;-49
2021/01/08 04:59:18;;;;;;;5.70;3.33;;;;;;;1.60;85.55;99796.98;1733231;81;21156;-49
2021/01/08 05:01:46;;;;;;;5.35;3.37;;;;;;;1.63;85.64;99799.88;1722804;81;21115;-48
2021/01/08 05:04:14;;;;;;;5.10;3.25;;;;;;;1.66;85.65;99804.92;1713560;81;21344;-48
2021/01/08 05:06:41;;;;;;;5.85;3.70;;;;;;;1.69;85.63;99809.16;1713091;82;21753;-49
2021/01/08 05:09:09;;;;;;;6.08;3.70;;;;;;;1.70;85.34;99812.97;1724378;81;21140;-49
2021/01/08 05:11:37;;;;;;;6.75;3.37;;;;;;;1.70;85.25;99810.36;1725868;81;22172;-50
2021/01/08 05:14:07;;;;;;;6.37;3.55;;;;;;;1.71;85.30;99815.12;1715628;81;21121;-49
2021/01/08 05:16:37;;;;;;;6.17;3.58;;;;;;;1.72;85.38;99814.20;1719342;82;21386;-49
2021/01/08 05:19:05;;;;;;;7.28;4.05;;;;;;;1.74;85.35;99817.57;1720666;82;21143;-49
2021/01/08 05:21:33;;;;;;;6.42;3.90;;;;;;;1.74;85.39;99818.87;1723549;81;21435;-49
2021/01/08 05:24:03;;;;;;;7.03;4.30;;;;;;;1.76;85.47;99831.38;1713211;81;21140;-49
2021/01/08 05:26:30;;;;;;;6.15;3.80;;;;;;;1.77;85.47;99822.14;1713155;81;21128;-49
2021/01/08 05:29:00;;;;;;;6.55;3.75;;;;;;;1.80;85.57;99826.37;1713014;81;21489;-49
2021/01/08 05:31:30;;;;;;;5.72;3.72;;;;;;;1.82;85.54;99818.00;1713087;81;21152;-49
2021/01/08 05:33:58;;;;;;;7.95;4.40;;;;;;;1.84;85.59;99826.58;1713629;81;21928;-49
2021/01/08 05:36:26;;;;;;;8.58;4.92;;;;;;;1.87;85.52;99822.95;1713150;81;21647;-48
2021/01/08 05:38:59;;;;;;;7.45;4.33;;;;;;;1.86;85.46;99820.81;1722880;81;21137;-48
2021/01/08 05:41:28;;;;;;;8.20;4.40;;;;;;;1.86;85.52;99816.90;1722946;81;21405;-48
2021/01/08 05:43:56;;;;;;;5.87;3.65;;;;;;;1.87;85.35;99829.02;1716965;82;21504;-48
2021/01/08 05:46:34;;;;;;;8.20;4.45;;;;;;;1.87;85.31;99830.33;1718059;82;21157;-48
2021/01/08 05:49:06;;;;;;;8.58;4.35;;;;;;;1.89;85.37;99832.39;1713660;81;21144;-48
2021/01/08 05:51:38;;;;;;;;;;;;;;;1.90;85.36;99832.77;1709313;81;21137;-50
2021/01/08 05:54:06;;;;;;;8.08;4.42;;;;;;;1.90;85.16;99841.91;1734841;81;21392;-49
2021/01/08 05:56:37;;;;;;;6.85;4.50;;;;;;;1.89;85.17;99841.97;1692243;83;21153;-49
2021/01/08 05:59:07;;;;;;;10.08;5.17;;;;;;;1.90;85.24;99851.05;1722288;81;21957;-49
2021/01/08 06:01:36;;;;;;;8.90;5.03;;;;;;;1.91;85.13;99847.50;1716684;81;21125;-49
2021/01/08 06:04:06;;;;;;;8.80;5.25;;;;;;;1.94;85.25;99856.09;1707869;83;22075;-49
2021/01/08 06:06:41;;;;;;;11.50;5.85;;;;;;;1.94;85.26;99863.45;1723709;81;21462;-48
2021/01/08 06:09:14;;;;;;;10.85;5.65;;;;;;;1.96;85.08;99870.73;1733545;81;21177;-49
2021/01/08 06:11:45;;;;;;;12.75;5.78;;;;;;;1.96;84.89;99883.78;1717823;82;21149;-49
2021/01/08 06:14:16;;;;;;;;;;;;;;;1.98;84.83;99881.93;1729672;81;21157;-49
2021/01/08 06:16:45;;;;;;;12.33;6.58;;;;;;;1.98;84.77;99889.77;1706906;81;20335;-49
2021/01/08 06:19:14;;;;;;;11.93;6.37;;;;;;;1.96;84.69;99884.26;1729951;81;21633;-49
2021/01/08 06:21:44;;;;;;;10.75;6.58;;;;;;;1.96;84.68;99886.87;1727068;80;21189;-48
2021/01/08 06:24:26;;;;;;;11.95;6.87;;;;;;;1.97;84.68;99891.16;1721219;81;21026;-49
2021/01/08 06:26:54;;;;;;;12.63;6.67;;;;;;;1.97;84.62;99905.05;1721672;81;21159;-49
2021/01/08 06:29:23;;;;;;;13.55;7.35;;;;;;;1.98;84.64;99911.95;1707138;81;21137;-49
2021/01/08 06:31:54;;;;;;;15.18;7.90;;;;;;;1.99;84.56;99916.72;1721185;81;22144;-49
2021/01/08 06:34:27;;;;;;;14.25;7.62;;;;;;;1.99;84.64;99914.94;1724313;81;22026;-49
2021/01/08 06:37:11;;;;;;;13.88;8.15;;;;;;;1.99;84.41;99918.03;1724885;81;21157;-48
2021/01/08 06:39:42;;;;;;;14.55;8.15;;;;;;;2.00;84.45;99922.33;1723175;81;21161;-49
2021/01/08 06:42:12;;;;;;;13.38;6.97;;;;;;;2.00;84.46;99928.85;1723002;81;21145;-48
2021/01/08 06:44:40;;;;;;;13.88;8.13;;;;;;;2.01;84.52;99931.84;1726288;81;21400;-49
2021/01/08 06:47:08;;;;;;;15.95;8.38;;;;;;;2.00;84.39;99932.29;1721867;81;21543;-49
2021/01/08 06:49:37;;;;;;;16.48;9.10;;;;;;;2.00;84.34;99935.38;1711169;81;21125;-50
2021/01/08 06:52:05;;;;;;;15.40;8.13;;;;;;;2.01;84.37;99944.42;1709811;81;21149;-49
2021/01/08 06:54:33;;;;;;;17.67;9.43;;;;;;;2.02;84.35;99947.41;1725376;81;21137;-49
2021/01/08 06:57:01;;;;;;;19.60;9.88;;;;;;;2.02;84.30;99950.50;1685222;81;21705;-49
2021/01/08 06:59:33;;;;;;;18.35;9.43;;;;;;;2.01;84.42;99954.86;1725473;81;21156;-50
2021/01/08 07:02:16;;;;;;;19.77;9.53;;;;;;;2.02;84.41;99958.33;1736536;81;21133;-49
2021/01/08 07:04:44;;;;;;;20.10;10.23;;;;;;;2.02;84.13;99966.16;1728212;81;21180;-49
2021/01/08 07:07:13;;;;;;;20.70;10.15;;;;;;;2.02;84.15;99976.13;1720274;81;21133;-49
2021/01/08 07:09:41;;;;;;;19.30;10.65;;;;;;;2.04;84.05;99979.50;1730302;81;21397;-50
2021/01/08 07:12:09;;;;;;;21.90;11.18;;;;;;;2.03;83.99;99976.51;1723297;81;21042;-48
2021/01/08 07:14:38;;;;;;;21.68;11.35;;;;;;;2.03;84.05;99979.59;1734484;81;21137;-49
2021/01/08 07:19:46;;;;;;;17.48;9.48;;;;;;;2.10;83.73;99967.90;1846754;76;24085;-49
2021/01/08 07:22:19;;;;;;;22.77;11.28;;;;;;;2.05;83.62;99972.52;1834379;77;21202;-48
2021/01/08 07:24:47;;;;;;;21.10;11.10;;;;;;;2.03;83.67;99982.20;1828569;77;21613;-49
2021/01/08 07:27:24;;;;;;;20.45;10.93;;;;;;;2.03;83.73;99987.42;1814765;77;21003;-50
2021/01/08 07:29:58;;;;;;;19.25;10.95;;;;;;;2.06;83.76;99988.57;1786802;77;22163;-49
2021/01/08 07:32:45;;;;;;;19.80;11.53;;;;;;;2.06;83.84;99983.34;1784237;78;21366;-49
2021/01/08 07:35:28;;;;;;;21.37;11.53;;;;;;;2.10;83.90;99984.02;1785207;78;21113;-49
2021/01/08 07:38:09;;;;;;;20.23;10.65;;;;;;;2.13;83.73;99995.13;1789852;78;21330;-49
2021/01/08 07:40:50;;;;;;;23.18;12.10;;;;;;;2.14;83.51;99995.50;1787018;78;21681;-50
2021/01/08 07:43:18;;;;;;;21.23;10.90;;;;;;;2.15;83.26;100006.33;1788124;77;21620;-49
2021/01/08 07:45:57;;;;;;;19.30;10.18;;;;;;;2.13;83.21;100008.17;1792665;77;20940;-49
2021/01/08 07:48:40;;;;;;;20.15;10.58;;;;;;;2.11;83.21;100013.97;1784307;78;20913;-50
2021/01/08 07:51:13;;;;;;;18.25;10.38;;;;;;;2.09;83.18;100011.91;1783183;78;21206;-49
2021/01/08 07:53:46;;;;;;;24.05;12.35;;;;;;;2.09;83.16;100017.58;1781447;78;21157;-48
2021/01/08 07:56:27;;;;;;;24.65;11.68;;;;;;;2.09;83.14;100015.83;1781680;78;21578;-49
2021/01/08 07:58:58;;;;;;;21.52;10.08;;;;;;;2.11;83.24;100032.25;1785951;78;21122;-49
2021/01/08 08:01:27;;;;;;;;;;;;;;;2.13;83.38;100032.98;1788977;77;21098;-49
2021/01/08 08:04:04;;;;;;;19.70;11.12;;;;;;;2.15;83.28;100028.52;1781800;79;21214;-48
2021/01/08 08:06:35;;;;;;;21.35;11.15;;;;;;;2.13;82.86;100032.98;1793125;77;21008;-49
2021/01/08 08:09:05;;;;;;;25.25;12.03;;;;;;;2.13;82.88;100039.52;1803031;77;21101;-49
2021/01/08 08:11:35;;;;;;;20.92;11.22;;;;;;;2.13;82.97;100034.77;1801863;77;20920;-49
2021/01/08 08:14:06;;;;;;;26.47;12.57;;;;;;;2.15;83.07;100045.50;1787424;77;20971;-49
2021/01/08 08:16:35;;;;;;;24.52;12.13;;;;;;;2.17;83.11;100046.73;1791511;77;21500;-49
2021/01/08 08:19:06;;;;;;;22.58;11.08;;;;;;;2.16;83.05;100044.57;1805907;78;21025;-49
2021/01/08 08:21:34;;;;;;;21.95;10.85;;;;;;;2.19;83.07;100047.50;1818505;77;21010;-49
2021/01/08 08:24:04;;;;;;;16.32;9.45;;;;;;;2.18;82.87;100047.95;1820782;77;21507;-49
2021/01/08 08:26:34;;;;;;;21.02;11.30;;;;;;;2.18;82.65;100048.42;1782187;78;21705;-49
2021/01/08 08:29:13;;;;;;;21.15;10.13;;;;;;;2.16;82.64;100052.41;1761733;80;21247;-49
2021/01/08 08:31:46;;;;;;;19.87;10.32;;;;;;;2.13;82.58;100039.98;1769193;78;21014;-49
2021/01/08 08:34:15;;;;;;;26.15;11.75;;;;;;;2.10;82.69;100037.09;1773874;80;21679;-49
2021/01/08 08:36:43;;;;;;;20.65;11.25;;;;;;;2.10;82.65;100042.31;1746740;80;21389;-49
2021/01/08 08:39:13;;;;;;;20.08;11.08;;;;;;;2.10;82.64;100037.53;1752663;80;21137;-50
2021/01/08 08:41:45;;;;;;;21.07;10.30;;;;;;;2.12;82.75;100048.75;1776606;78;22765;-49
2021/01/08 08:44:17;;;;;;;18.00;9.83;;;;;;;2.13;82.76;100035.59;1743325;80;21016;-49
2021/01/08 08:46:54;;;;;;;17.15;9.55;;;;;;;2.15;82.85;100055.94;1779835;80;21823;-49
2021/01/08 08:49:36;;;;;;;17.62;9.58;;;;;;;2.13;82.45;100057.79;1740571;80;21117;-49
2021/01/08 08:52:05;;;;;;;18.77;10.48;;;;;;;2.11;82.44;100060.11;1762496;80;21567;-49
2021/01/08 08:54:39;;;;;;;17.62;9.25;;;;;;;2.11;82.60;100061.42;1763323;78;21203;-49
2021/01/08 08:57:08;;;;;;;16.32;8.68;;;;;;;2.11;82.45;100061.42;1766024;78;21987;-49
2021/01/08 08:59:45;;;;;;;17.40;8.95;;;;;;;2.12;82.63;100059.19;1744703;80;21132;-50
2021/01/08 09:02:25;;;;;;;19.07;9.78;;;;;;;2.12;82.40;100065.24;1734151;80;21165;-49
2021/01/08 09:05:00;;;;;;;16.35;8.80;;;;;;;2.13;82.43;100064.32;1780834;80;21598;-49
2021/01/08 09:07:54;;;;;;;18.05;9.58;;;;;;;2.16;82.17;100062.85;1731234;81;21630;-49
2021/01/08 09:10:27;;;;;;;21.42;11.35;;;;;;;2.18;82.20;100064.09;1739694;80;20999;-49
2021/01/08 09:13:03;;;;;;;20.70;10.93;;;;;;;2.20;82.60;100058.33;1754398;81;21145;-49
2021/01/08 09:15:34;;;;;;;20.50;10.53;;;;;;;2.25;82.42;100058.07;1745167;81;20994;-49
2021/01/08 09:18:31;;;;;;;15.85;9.25;;;;;;;2.28;82.11;100061.37;1773791;80;21790;-48
2021/01/08 09:21:28;;;;;;;19.12;10.43;;;;;;;2.29;81.82;100060.90;1771782;80;21248;-49
2021/01/08 09:23:59;;;;;;;24.55;12.25;;;;;;;2.28;81.78;100065.30;1771700;80;21026;-49
2021/01/08 09:26:28;;;;;;;19.40;10.82;;;;;;;2.29;81.94;100068.29;1737141;80;21338;-48
2021/01/08 09:28:56;;;;;;;20.23;11.28;;;;;;;2.29;81.76;100081.80;1751086;80;21504;-48
2021/01/08 09:31:44;;;;;;;20.50;11.10;;;;;;;2.25;81.65;100077.66;1750109;80;21141;-50
2021/01/08 09:34:12;;;;;;;22.55;12.37;;;;;;;2.23;81.75;100081.67;1713616;81;21465;-48
2021/01/08 09:36:41;;;;;;;20.92;11.30;;;;;;;2.20;81.89;100074.00;1744499;80;21035;-48
2021/01/08 09:39:10;;;;;;;18.77;11.40;;;;;;;2.19;82.28;100078.36;1742124;81;21024;-49
2021/01/08 09:41:39;;;;;;;18.92;10.78;;;;;;;2.23;82.47;100080.81;1746674;81;21169;-49
2021/01/08 09:44:09;;;;;;;21.25;10.80;;;;;;;2.24;82.27;100080.75;1747363;80;21149;-49
2021/01/08 09:46:54;;;;;;;21.82;11.53;;;;;;;2.27;81.96;100083.20;1748647;81;22011;-49
2021/01/08 09:49:23;;;;;;;24.18;10.98;;;;;;;2.30;81.97;100083.48;1733237;80;21004;-49
2021/01/08 09:52:01;;;;;;;18.20;10.80;;;;;;;2.32;81.91;100089.02;1744613;81;21015;-49
2021/01/08 09:54:49;;;;;;;20.50;11.03;;;;;;;2.34;81.70;100086.31;1734466;80;20995;-49
2021/01/08 09:57:30;;;;;;;18.65;10.13;;;;;;;2.33;81.61;100078.09;1740461;80;21152;-50
2021/01/08 10:00:07;;;;;;;20.05;10.53;;;;;;;2.31;81.40;100079.95;1742252;81;21421;-49
2021/01/08 10:02:46;;;;;;;17.75;9.70;;;;;;;2.32;81.28;100075.11;1744627;80;21595;-49
2021/01/08 10:05:26;;;;;;;20.30;9.68;;;;;;;2.30;81.28;100075.65;1747091;80;21011;-48
2021/01/08 10:07:55;;;;;;;19.98;10.55;;;;;;;2.27;80.94;100081.89;1743323;80;21106;-49
2021/01/08 10:10:37;;;;;;;20.43;11.43;;;;;;;2.20;81.07;100078.74;1749407;81;21153;-49
2021/01/08 10:13:07;;;;;;;23.52;14.07;;;;;;;2.16;81.39;100075.91;1736349;80;21490;-49
2021/01/08 10:15:48;;;;;;;22.37;11.60;;;;;;;2.18;81.70;100077.98;1749000;80;23774;-49
2021/01/08 10:18:27;;;;;;;15.80;9.60;;;;;;;2.22;81.62;100079.98;1742113;80;21166;-49
2021/01/08 10:20:58;;;;;;;19.05;9.75;;;;;;;2.24;81.65;100070.30;1748628;81;22127;-49
2021/01/08 10:23:26;;;;;;;16.90;9.40;;;;;;;2.25;81.59;100074.59;1748416;81;22112;-49
2021/01/08 10:25:54;;;;;;;21.35;11.48;;;;;;;2.25;81.02;100073.30;1741540;81;21129;-49
2021/01/08 10:28:23;;;;;;;18.73;9.28;;;;;;;2.24;80.99;100079.89;1748542;80;21074;-49
2021/01/08 10:30:54;;;;;;;16.52;9.83;;;;;;;2.24;80.85;100075.97;1741822;81;21668;-49
2021/01/08 10:33:23;;;;;;;19.25;9.13;;;;;;;2.23;80.62;100078.20;1756324;81;20967;-49
2021/01/08 10:35:54;;;;;;;15.98;8.38;;;;;;;2.23;80.03;100080.36;1756508;81;21133;-48
2021/01/08 10:38:22;;;;;;;16.25;9.30;;;;;;;2.23;79.82;100072.53;1756229;79;23029;-49
2021/01/08 10:40:50;;;;;;;15.18;7.58;;;;;;;2.25;79.66;100079.83;1756034;81;21153;-49
2021/01/08 10:43:18;;;;;;;19.57;9.88;;;;;;;2.28;79.83;100084.89;1756071;81;21002;-49
2021/01/08 10:45:46;;;;;;;19.23;10.18;;;;;;;2.31;79.40;100085.17;1754688;79;21161;-49
2021/01/08 10:48:15;;;;;;;19.87;10.78;;;;;;;2.31;79.41;100085.17;1745949;81;21120;-50
2021/01/08 10:50:44;;;;;;;17.52;10.10;;;;;;;2.34;79.67;100073.26;1746638;79;21347;-48
2021/01/08 10:53:11;;;;;;;20.15;10.88;;;;;;;2.35;79.45;100078.86;1723044;81;22039;-48
2021/01/08 10:55:39;;;;;;;18.80;9.63;;;;;;;2.38;79.79;100073.95;1747786;81;21015;-49
2021/01/08 10:58:07;;;;;;;15.50;9.35;;;;;;;2.43;79.37;100079.30;1755622;79;21148;-49
2021/01/08 11:00:34;;;;;;;19.02;10.90;;;;;;;2.47;78.93;100090.45;1755491;81;21549;-50
2021/01/08 11:03:03;;;;;;;19.20;10.00;;;;;;;2.48;78.71;100077.29;1777480;80;21575;-49
2021/01/08 11:05:31;;;;;;;16.93;9.63;;;;;;;2.48;78.02;100075.16;1765263;80;21783;-49
2021/01/08 11:07:58;;;;;;;17.00;10.30;;;;;;;2.49;78.19;100082.06;1777794;80;21589;-49
2021/01/08 11:10:26;;;;;;;19.00;10.18;;;;;;;2.54;78.40;100079.19;1766725;80;22121;-49
2021/01/08 11:12:53;;;;;;;15.30;8.98;;;;;;;2.58;78.16;100086.80;1768597;80;21142;-49
2021/01/08 11:15:22;;;;;;;17.27;9.65;;;;;;;2.61;77.86;100085.33;1754927;79;21365;-49
2021/01/08 11:17:50;;;;;;;21.93;11.33;;;;;;;2.63;77.89;100085.23;1755209;79;21804;-49
2021/01/08 11:20:18;;;;;;;16.35;8.33;;;;;;;2.68;77.94;100096.73;1756620;81;21421;-49
2021/01/08 11:22:45;;;;;;;15.83;8.90;;;;;;;2.72;77.62;100088.66;1754962;80;21138;-49
2021/01/08 11:25:14;;;;;;;17.62;9.80;;;;;;;2.74;77.40;100095.09;1739060;81;21605;-50
2021/01/08 11:27:42;;;;;;;17.62;9.40;;;;;;;2.74;77.22;100094.64;1755900;79;21134;-49
2021/01/08 11:30:12;;;;;;;22.80;12.80;;;;;;;2.73;77.24;100095.56;1755169;79;21143;-49
2021/01/08 11:32:39;;;;;;;18.87;10.40;;;;;;;2.74;77.41;100098.56;1755404;79;21022;-49
2021/01/08 11:35:09;;;;;;;16.40;9.55;;;;;;;2.76;77.37;100101.94;1755437;79;21116;-50
2021/01/08 11:37:38;;;;;;;17.87;9.95;;;;;;;2.77;77.43;100102.77;1755882;79;21142;-50
2021/01/08 11:40:07;;;;;;;18.60;10.18;;;;;;;2.75;77.25;100102.86;1755864;79;21206;-50
2021/01/08 11:42:36;;;;;;;18.12;10.05;;;;;;;2.74;76.77;100105.55;1755302;81;21173;-50
2021/01/08 11:45:05;;;;;;;16.37;9.83;;;;;;;2.70;76.49;100097.48;1756238;79;20998;-48
2021/01/08 11:47:36;;;;;;;18.48;10.60;;;;;;;2.68;76.62;100095.42;1751145;78;21110;-49
2021/01/08 11:50:07;;;;;;;14.90;8.38;;;;;;;2.66;76.21;100097.66;1749445;79;21113;-48
2021/01/08 11:52:34;;;;;;;14.07;8.05;;;;;;;2.65;76.40;100096.45;1755949;81;21202;-49